Giddings, TX (78942)

9:35 AM CDT on September 19, 2014 (GMT -0500)
Serbin | Change Station
CLOSE
Current Station
Personal Weather Station
Location: Giddings, TX
Elevation: 430 ft
Nearby Weather Stations

Elev 430 ft 30.15 °N, 96.97 °W | Updated 18 seconds ago

Overcast
Overcast
74.6 °F
Feels Like 71 °F
N
4.0
Wind Variable Wind from ENE
Gusts 4.0 mph

Today
High -- | Low -- °F
--% Chance of Precip.
Yesterday
High -- | Low -- °F
Precip. -- in
7:14 AM 7:28 PM
Waning Crescent, 19% visible
Pressure 29.97 in
Visibility 7.0 miles
Clouds Mostly Cloudy 400 ft
Overcast 1500 ft
Heat Index 71 °F
Dew Point 74 °F
Humidity 99%
Rainfall 0.74 in
Snow Depth Not available.
UV 1 out of 12
Pollen 6.50 out of 12
Air Quality Not available.
Flu Activity Not available.
METAR KGYB 191415Z AUTO 09004KT 7SM BKN004 OVC015 24/23 A2997 RMK AO2 T02360229

More Conditions Fewer Conditions

Pressure 29.97 in
Visibility 7.0 miles
Clouds Mostly Cloudy 400 ft
Overcast 1500 ft
Heat Index 71 °F
Dew Point 74 °F
Humidity 99%
Rainfall 0.74 in
Snow Depth Not available.
UV 1 out of 12
Pollen 6.50 out of 12
Air Quality Not available.
Flu Activity Not available.
METAR KGYB 191415Z AUTO 09004KT 7SM BKN004 OVC015 24/23 A2997 RMK AO2 T02360229

More Conditions Fewer Conditions

Nowcast | as of 8:46 am CDT on September 19, 2014

Scattered showers will continue to move east and taper off through 11 am. Rainfall will be spotty and average 1/10 to 1/2 inch... although some spots could receive up to 1 inch of rain. Drive cautiously as some low lying spots are flooded from rains over the past few days...and roads will be slick even where not flooded.

×

10-Day Weather Forecast

Almanac

Astronomy

Sep. 19, 2014 Rise Set
Actual Time 7:14 AM CDT 7:28 PM CDT
Civil Twilight 6:50 AM CDT 7:51 PM CDT
Nautical Twilight 6:22 AM CDT 8:19 PM CDT
Astronomical Twilight 5:54 AM CDT 8:48 PM CDT
Moon 3:15 AM CDT 4:44 PM CDT
Length of Visible Light 13h 01m
Length of Day
12h 13m
Tomorrow will be 1m 49s shorter.
Waning Crescent, 19% of the Moon is Illuminated
Today
Waning Crescent
Sep 24
New
Oct 1
First Quarter
Oct 8
Full
Oct 15
Last Quarter

Today's Extremes

State Highs State Lows

Community

WunderPhotos

Upload Photos

1,754,624 photos uploaded!

WunderBlogs® & News

Nearby

Snow Depth

Station Depth Elevation
No new snow has been reported.

Earthquake Activity

City Distance Mag. Time & Date
No recent earthquake activity has been reported nearby.
Minimum magnitude displayed is 2.5.

Coastal Water Temperatures

Place Temperature
No Stations Reporting

Nearby Weather Stations